createdAt,value
2023-01-10T00:02:18.529Z,4.80
2023-01-10T00:04:46.936Z,4.43
2023-01-10T00:07:15.346Z,3.65
2023-01-10T00:09:43.564Z,4.35
2023-01-10T00:12:30.321Z,4.05
2023-01-10T00:14:58.413Z,3.57
2023-01-10T00:17:27.193Z,3.90
2023-01-10T00:19:55.843Z,3.97
2023-01-10T00:22:26.541Z,3.58
2023-01-10T00:24:54.844Z,3.50
2023-01-10T00:27:23.756Z,3.35
2023-01-10T00:29:55.794Z,3.60
2023-01-10T00:32:24.394Z,3.20
2023-01-10T00:34:52.970Z,3.33
2023-01-10T00:37:21.528Z,3.97
2023-01-10T00:39:50.279Z,3.65
2023-01-10T00:42:37.600Z,4.07
2023-01-10T00:45:06.599Z,3.72
2023-01-10T00:47:34.848Z,3.22
2023-01-10T00:50:05.553Z,3.20
2023-01-10T00:52:33.756Z,3.25
2023-01-10T00:55:01.903Z,3.10
2023-01-10T00:57:29.989Z,3.15
2023-01-10T00:59:58.233Z,2.88
2023-01-10T01:02:27.036Z,3.58
2023-01-10T01:04:55.899Z,3.08
2023-01-10T01:07:24.661Z,3.00
2023-01-10T01:10:11.829Z,3.40
2023-01-10T01:12:40.544Z,3.28
2023-01-10T01:15:09.508Z,3.10
2023-01-10T01:17:37.972Z,3.28
2023-01-10T01:20:07.102Z,2.63
2023-01-10T01:22:35.972Z,2.25
2023-01-10T01:25:05.585Z,2.00
2023-01-10T01:27:35.695Z,1.30
2023-01-10T01:30:04.554Z,1.13
2023-01-10T01:32:32.853Z,1.20
2023-01-10T01:35:02.044Z,1.05
2023-01-10T01:37:30.210Z,1.13
2023-01-10T01:39:58.644Z,1.17
2023-01-10T01:42:29.927Z,1.30
2023-01-10T01:45:10.683Z,0.85
2023-01-10T01:48:00.734Z,0.80
2023-01-10T01:50:32.124Z,0.93
2023-01-10T01:53:07.493Z,0.95
2023-01-10T01:55:37.565Z,0.80
2023-01-10T01:58:11.942Z,0.80
2023-01-10T02:00:40.239Z,0.65
2023-01-10T02:03:09.077Z,0.82
2023-01-10T02:05:40.814Z,0.70
2023-01-10T02:08:09.335Z,0.77
2023-01-10T02:11:07.169Z,1.10
2023-01-10T02:13:40.530Z,0.85
2023-01-10T02:16:10.669Z,0.60
2023-01-10T02:18:43.337Z,0.77
2023-01-10T02:21:20.820Z,0.95
2023-01-10T02:24:21.860Z,0.93
2023-01-10T02:27:14.016Z,0.80
2023-01-10T02:30:03.066Z,0.73
2023-01-10T02:32:53.601Z,0.80
2023-01-10T02:35:57.580Z,0.90
2023-01-10T02:38:50.458Z,0.80
2023-01-10T02:41:49.001Z,0.90
2023-01-10T02:44:26.433Z,0.98
2023-01-10T02:46:56.652Z,1.10
2023-01-10T02:49:25.278Z,0.90
2023-01-10T02:51:54.266Z,1.15
2023-01-10T02:54:31.084Z,0.80
2023-01-10T02:57:10.902Z,0.80
2023-01-10T02:59:44.752Z,0.70
2023-01-10T03:02:40.503Z,0.90
2023-01-10T03:05:32.627Z,0.80
2023-01-10T03:08:19.740Z,0.63
2023-01-10T03:11:09.788Z,0.93
2023-01-10T03:13:51.344Z,0.80
2023-01-10T03:16:25.251Z,0.85
2023-01-10T03:19:08.721Z,0.98
2023-01-10T03:21:39.203Z,0.80
2023-01-10T03:24:32.053Z,1.08
2023-01-10T03:27:25.249Z,1.02
2023-01-10T03:30:05.722Z,0.95
2023-01-10T03:32:34.563Z,1.17
2023-01-10T03:35:03.769Z,0.90
2023-01-10T03:37:45.640Z,0.95
2023-01-10T03:40:37.846Z,0.70
2023-01-10T03:43:38.770Z,0.85
2023-01-10T03:46:13.785Z,0.80
2023-01-10T03:48:45.644Z,1.00
2023-01-10T03:51:16.215Z,0.85
2023-01-10T03:53:45.499Z,0.80
2023-01-10T03:56:15.853Z,0.82
2023-01-10T03:58:44.289Z,0.60
2023-01-10T04:01:12.843Z,0.93
2023-01-10T04:03:41.391Z,0.90
2023-01-10T04:06:10.000Z,1.00
2023-01-10T04:08:38.649Z,0.80
2023-01-10T04:11:07.449Z,0.75
2023-01-10T04:13:35.798Z,0.80
2023-01-10T04:16:04.084Z,0.80
2023-01-10T04:18:32.452Z,0.93
2023-01-10T04:21:00.434Z,1.00
2023-01-10T04:23:28.655Z,0.70
2023-01-10T04:25:57.093Z,0.98
2023-01-10T04:28:25.538Z,1.40
2023-01-10T04:30:54.172Z,1.10
2023-01-10T04:33:23.177Z,1.10
2023-01-10T04:35:52.401Z,1.20
2023-01-10T04:38:21.011Z,1.35
2023-01-10T04:40:56.933Z,1.00
2023-01-10T04:43:26.039Z,1.08
2023-01-10T04:45:54.491Z,1.00
2023-01-10T14:05:18.463Z,0.33
2023-01-10T14:07:55.585Z,0.20
2023-01-10T14:13:09.520Z,0.63
2023-01-10T14:15:41.019Z,0.43
2023-01-10T14:18:22.420Z,0.50
2023-01-10T14:21:03.939Z,0.35
2023-01-10T14:23:37.120Z,0.35
2023-01-10T14:26:06.311Z,0.30
2023-01-10T14:28:36.676Z,0.20
2023-01-10T14:31:23.341Z,0.38
2023-01-10T14:33:53.587Z,0.40
2023-01-10T14:36:30.964Z,0.20
2023-01-10T14:39:07.636Z,0.30
2023-01-10T14:41:43.280Z,0.32
2023-01-10T14:44:27.718Z,0.30
2023-01-10T14:46:58.986Z,0.40
2023-01-10T14:49:49.470Z,0.60
2023-01-10T14:52:21.229Z,0.55
2023-01-10T14:55:02.299Z,0.20
2023-01-10T14:57:31.132Z,0.22
2023-01-10T15:00:18.007Z,0.30
2023-01-10T15:02:48.404Z,0.50
2023-01-10T16:46:27.629Z,1.23
2023-01-10T16:48:56.272Z,0.77
2023-01-10T16:51:29.021Z,0.82
2023-01-10T16:53:57.415Z,1.10
2023-01-10T16:56:28.941Z,1.00
2023-01-10T16:58:58.567Z,1.10
2023-01-10T17:01:39.376Z,0.90
2023-01-10T17:04:09.153Z,1.15
2023-01-10T17:06:40.793Z,1.25
2023-01-10T17:09:28.636Z,1.33
2023-01-10T17:12:02.661Z,1.48
2023-01-10T17:14:36.641Z,1.60
2023-01-10T17:17:05.526Z,1.73
2023-01-10T17:19:34.300Z,1.83
2023-01-10T17:22:03.311Z,1.48
2023-01-10T17:24:31.837Z,1.30
2023-01-10T17:27:00.573Z,1.40
2023-01-10T17:29:30.839Z,1.95
2023-01-10T17:31:59.502Z,1.85
2023-01-10T17:34:28.280Z,2.03
2023-01-10T17:36:56.564Z,1.92
2023-01-10T17:39:26.887Z,1.67
2023-01-10T17:41:58.063Z,1.52
2023-01-10T17:44:26.457Z,1.60
2023-01-10T17:46:57.262Z,1.40
2023-01-10T17:49:25.753Z,1.45
2023-01-10T17:51:55.307Z,1.42
2023-01-10T17:54:23.588Z,1.48
2023-01-10T17:56:51.997Z,1.40
2023-01-10T17:59:20.686Z,1.52
2023-01-10T18:01:49.581Z,1.70
2023-01-10T18:04:18.434Z,1.70
2023-01-10T18:06:47.031Z,1.90
2023-01-10T18:09:15.931Z,1.60
2023-01-10T18:11:44.725Z,1.42
2023-01-10T18:14:32.339Z,1.67
2023-01-10T18:17:01.335Z,1.90
2023-01-10T18:19:32.575Z,1.58
2023-01-10T18:22:01.590Z,1.65
2023-01-10T18:24:30.143Z,1.70
2023-01-10T18:26:58.598Z,1.90
2023-01-10T18:29:27.653Z,1.85
2023-01-10T18:31:56.285Z,1.90
2023-01-10T18:34:24.929Z,2.25
2023-01-10T18:36:53.532Z,2.00
2023-01-10T18:39:22.339Z,1.75
2023-01-10T18:41:50.849Z,2.53
2023-01-10T18:44:20.083Z,2.08
2023-01-10T18:46:48.835Z,2.20
2023-01-10T18:49:18.005Z,2.15
2023-01-10T18:51:46.939Z,1.90
2023-01-10T18:54:16.174Z,2.03
2023-01-10T18:56:45.003Z,2.40
2023-01-10T18:59:14.042Z,2.45
2023-01-10T19:01:42.681Z,2.17
2023-01-10T19:04:11.743Z,2.10
2023-01-10T19:06:40.482Z,1.95
2023-01-10T19:09:09.616Z,2.10
2023-01-10T19:11:37.980Z,2.10
2023-01-10T19:14:06.693Z,2.10
2023-01-10T19:16:36.096Z,1.98
2023-01-10T19:19:09.681Z,2.60
2023-01-10T19:21:39.400Z,2.25
2023-01-10T19:24:25.266Z,2.60
2023-01-10T19:26:54.850Z,3.00
2023-01-10T19:29:24.804Z,2.95
2023-01-10T19:31:54.272Z,2.20
2023-01-10T19:34:23.780Z,2.50
2023-01-10T19:36:52.737Z,2.78
2023-01-10T19:39:21.415Z,2.22
2023-01-10T19:41:50.313Z,1.90
2023-01-10T19:44:19.038Z,2.90
2023-01-10T19:46:49.929Z,2.50
2023-01-10T19:49:20.408Z,2.40
2023-01-10T19:51:54.738Z,2.67
2023-01-10T19:54:24.990Z,3.55
2023-01-10T19:56:53.815Z,3.58
2023-01-10T19:59:22.817Z,2.67
2023-01-10T20:01:51.652Z,3.22
2023-01-10T20:04:20.196Z,3.20
2023-01-10T20:06:49.674Z,3.13
2023-01-10T20:09:18.581Z,3.25
2023-01-10T20:11:47.296Z,3.08
2023-01-10T20:14:19.212Z,2.90
2023-01-10T20:16:49.973Z,2.80
2023-01-10T20:19:25.710Z,2.78
2023-01-10T20:21:55.455Z,3.08
2023-01-10T20:24:24.399Z,2.83
2023-01-10T20:26:54.022Z,3.47
2023-01-10T20:29:22.666Z,2.80
2023-01-10T20:31:54.142Z,3.65
2023-01-10T20:34:23.712Z,3.55
2023-01-10T20:36:55.302Z,2.85
2023-01-10T20:39:26.680Z,2.92
2023-01-10T20:41:55.689Z,2.95
2023-01-10T20:44:24.640Z,2.95
2023-01-10T20:46:56.611Z,3.35
2023-01-10T20:49:25.717Z,3.80
2023-01-10T20:51:55.308Z,3.85
2023-01-10T20:54:24.161Z,3.20
2023-01-10T20:56:53.125Z,2.83
2023-01-10T20:59:21.642Z,2.95
2023-01-10T21:01:50.349Z,2.72
2023-01-10T21:04:19.212Z,2.65
2023-01-10T21:06:47.967Z,2.90
2023-01-10T21:09:17.828Z,2.65
2023-01-10T21:12:01.726Z,2.85
2023-01-10T21:14:35.487Z,2.63
2023-01-10T21:17:04.305Z,2.70
2023-01-10T21:19:32.592Z,2.67
2023-01-10T21:22:01.552Z,3.10
2023-01-10T21:24:30.010Z,3.05
2023-01-10T21:26:58.917Z,3.30
2023-01-10T21:29:28.325Z,3.88
2023-01-10T21:31:57.185Z,3.03
2023-01-10T21:34:26.152Z,2.88
2023-01-10T21:36:54.847Z,3.00
2023-01-10T21:39:23.282Z,2.67
2023-01-10T21:42:10.174Z,3.15
2023-01-10T21:44:38.698Z,2.70
2023-01-10T21:47:07.281Z,2.75
2023-01-10T21:49:35.648Z,2.38
2023-01-10T21:52:04.176Z,3.00
2023-01-10T21:54:32.839Z,2.83
2023-01-10T21:57:01.599Z,2.97
2023-01-10T21:59:30.841Z,2.83
2023-01-10T22:01:59.670Z,2.55
2023-01-10T22:04:28.361Z,2.63
2023-01-10T22:07:00.026Z,2.83
2023-01-10T22:09:30.164Z,2.70
2023-01-10T22:12:06.316Z,2.72
2023-01-10T22:14:34.626Z,2.85
2023-01-10T22:17:04.442Z,3.00
2023-01-10T22:19:33.115Z,2.47
2023-01-10T22:22:02.178Z,2.50
2023-01-10T22:24:31.120Z,3.15
2023-01-10T22:27:00.191Z,3.17
2023-01-10T22:29:29.253Z,2.42
2023-01-10T22:31:58.145Z,2.80
2023-01-10T22:34:26.988Z,2.63
2023-01-10T22:36:55.967Z,3.28
2023-01-10T22:39:24.989Z,2.80
2023-01-10T22:41:56.364Z,2.53
2023-01-10T22:44:27.488Z,2.80
2023-01-10T22:46:56.363Z,2.97
2023-01-10T22:49:26.117Z,2.60
2023-01-10T22:51:55.438Z,2.78
2023-01-10T22:54:24.486Z,3.53
2023-01-10T22:56:52.767Z,2.85
2023-01-10T22:59:21.260Z,2.97
2023-01-10T23:01:49.679Z,2.80
2023-01-10T23:04:20.994Z,2.90
2023-01-10T23:06:50.737Z,2.97
2023-01-10T23:09:19.443Z,3.28
2023-01-10T23:11:47.828Z,3.05
2023-01-10T23:14:16.420Z,2.97
2023-01-10T23:16:45.481Z,3.33
2023-01-10T23:19:14.228Z,3.15
2023-01-10T23:21:42.915Z,2.78
2023-01-10T23:24:11.757Z,2.80
2023-01-10T23:26:40.396Z,2.60
2023-01-10T23:29:09.285Z,3.40
2023-01-10T23:31:37.611Z,4.40
2023-01-10T23:34:06.439Z,4.30
2023-01-10T23:36:34.873Z,4.00
2023-01-10T23:39:03.373Z,4.55
2023-01-10T23:41:31.902Z,4.22
2023-01-10T23:43:59.954Z,4.07
2023-01-10T23:46:28.558Z,3.40
2023-01-10T23:48:57.209Z,3.55
2023-01-10T23:51:25.430Z,4.43
2023-01-10T23:53:53.948Z,3.85
2023-01-10T23:56:22.138Z,4.25
2023-01-10T23:58:53.906Z,4.38
